Time;durP1;ratioP1;P1;durP2;ratioP2;P2;SDS_P1;SDS_P2;PMS_P1;PMS_P2;Temp;Humidity;BMP_temperature;BMP_pressure;BME280_temperature;BME280_humidity;BME280_pressure;Samples;Min_cycle;Max_cycle;Signal;HPM_P1;HPM_P2
2022/06/19 00:01:01;;;;;;;11.55;1.90;;;14.20;99.90;;;;;;5063440;28;20597;-60
2022/06/19 00:03:35;;;;;;;12.02;2.40;;;14.20;99.90;;;;;;5062021;28;20502;-58
2022/06/19 00:06:01;;;;;;;8.07;2.05;;;14.10;99.90;;;;;;5060986;28;20052;-64
2022/06/19 00:08:29;;;;;;;10.63;2.22;;;14.10;99.90;;;;;;5060040;28;20051;-61
2022/06/19 00:10:55;;;;;;;10.02;1.58;;;14.10;99.90;;;;;;5094465;28;20094;-61
2022/06/19 00:13:21;;;;;;;13.13;2.40;;;14.00;99.90;;;;;;5072491;28;20044;-58
2022/06/19 00:15:47;;;;;;;11.20;2.05;;;14.00;99.90;;;;;;5064840;28;20062;-65
2022/06/19 00:18:13;;;;;;;9.40;1.67;;;14.00;99.90;;;;;;5066682;28;20115;-63
2022/06/19 00:20:39;;;;;;;14.20;2.13;;;14.00;99.90;;;;;;5064639;28;20124;-67
2022/06/19 00:23:05;;;;;;;12.45;2.47;;;13.90;99.90;;;;;;5081596;28;20120;-64
2022/06/19 00:25:31;;;;;;;7.47;1.92;;;13.90;99.90;;;;;;5063672;28;20048;-59
2022/06/19 00:27:56;;;;;;;8.40;2.03;;;13.90;99.90;;;;;;5062517;28;20133;-66
2022/06/19 00:30:22;;;;;;;8.90;1.88;;;13.90;99.90;;;;;;5061086;28;20048;-62
2022/06/19 00:32:48;;;;;;;11.30;1.77;;;13.90;99.90;;;;;;5066171;28;20044;-59
2022/06/19 00:35:13;;;;;;;14.10;2.97;;;13.90;99.90;;;;;;5064576;28;20131;-62
2022/06/19 00:37:39;;;;;;;15.75;2.22;;;13.90;99.90;;;;;;5047769;28;20045;-63
2022/06/19 00:40:08;;;;;;;13.18;2.90;;;14.00;99.90;;;;;;5065540;28;20060;-66
2022/06/19 00:42:35;;;;;;;11.55;2.28;;;13.90;99.90;;;;;;5064151;28;20127;-64
2022/06/19 00:45:01;;;;;;;14.55;2.85;;;13.90;99.90;;;;;;5070349;28;20083;-63
2022/06/19 00:47:34;;;;;;;20.08;2.35;;;13.90;99.90;;;;;;5060468;28;20029;-60
2022/06/19 00:50:15;;;;;;;10.15;2.22;;;13.90;99.90;;;;;;5061758;28;20056;-64
2022/06/19 00:52:41;;;;;;;9.68;2.35;;;13.90;99.90;;;;;;5057679;28;20132;-69
2022/06/19 00:55:20;;;;;;;9.52;2.38;;;13.90;99.90;;;;;;5094317;28;20044;-60
2022/06/19 00:57:50;;;;;;;20.17;2.55;;;13.90;99.90;;;;;;5055088;28;20041;-65
2022/06/19 01:00:29;;;;;;;12.63;2.17;;;13.90;99.90;;;;;;5039779;28;20098;-59
2022/06/19 01:03:09;;;;;;;22.80;3.13;;;13.90;99.90;;;;;;5090167;28;20434;-60
2022/06/19 01:05:40;;;;;;;14.15;2.85;;;13.90;99.90;;;;;;5090855;28;20087;-63
2022/06/19 01:08:06;;;;;;;13.30;2.70;;;13.90;99.90;;;;;;5058555;28;20053;-64
2022/06/19 01:10:37;;;;;;;11.82;2.88;;;13.90;99.90;;;;;;5062847;28;20044;-67
2022/06/19 01:13:03;;;;;;;16.60;2.95;;;13.90;99.90;;;;;;5079013;28;20048;-65
2022/06/19 01:15:28;;;;;;;15.45;2.88;;;13.90;99.90;;;;;;5046129;28;20097;-66
2022/06/19 01:18:00;;;;;;;11.15;2.10;;;13.90;99.90;;;;;;5064704;28;20044;-69
2022/06/19 01:20:27;;;;;;;15.80;2.38;;;13.90;99.90;;;;;;5063457;28;20044;-66
2022/06/19 01:23:08;;;;;;;14.77;2.35;;;13.90;99.90;;;;;;5063605;28;20044;-66
2022/06/19 01:25:36;;;;;;;13.63;2.45;;;13.90;99.90;;;;;;5060448;28;20110;-67
2022/06/19 01:30:59;;;;;;;9.25;2.35;;;13.90;99.90;;;;;;5094387;28;20056;-63
2022/06/19 01:33:36;;;;;;;13.20;2.35;;;13.90;99.90;;;;;;5060758;28;20067;-64
2022/06/19 01:36:03;;;;;;;15.32;3.08;;;13.90;99.90;;;;;;5077682;28;20495;-62
2022/06/19 01:38:31;;;;;;;20.30;3.58;;;13.90;99.90;;;;;;5065686;28;20037;-68
2022/06/19 01:41:02;;;;;;;20.05;3.42;;;14.00;99.90;;;;;;5050995;28;20056;-63
2022/06/19 01:43:28;;;;;;;17.30;3.03;;;13.90;99.90;;;;;;5080417;28;20394;-65
2022/06/19 01:45:56;;;;;;;19.08;3.45;;;13.90;99.90;;;;;;5084374;28;20039;-67
2022/06/19 01:48:26;;;;;;;20.98;4.22;;;13.90;99.90;;;;;;5062500;28;20044;-70
2022/06/19 01:50:53;;;;;;;19.38;3.17;;;13.90;99.90;;;;;;5066424;28;20057;-69
2022/06/19 01:53:49;;;;;;;11.80;2.47;;;13.90;99.90;;;;;;5065009;28;20048;-63
2022/06/19 01:56:15;;;;;;;26.42;3.67;;;13.90;99.90;;;;;;5048202;28;20403;-71
2022/06/19 01:58:46;;;;;;;29.00;4.28;;;13.90;99.90;;;;;;5066811;28;20510;-68
2022/06/19 02:01:12;;;;;;;20.70;3.60;;;13.90;99.90;;;;;;5080548;28;20069;-66
2022/06/19 02:03:56;;;;;;;20.70;3.42;;;14.00;99.90;;;;;;5062547;28;20049;-67
2022/06/19 02:06:28;;;;;;;16.25;3.00;;;14.00;99.90;;;;;;5082161;28;20045;-61
2022/06/19 02:08:54;;;;;;;12.75;2.38;;;14.00;99.90;;;;;;5063265;28;20048;-69
2022/06/19 02:11:21;;;;;;;22.50;3.30;;;14.00;99.90;;;;;;5065442;28;20095;-69
2022/06/19 02:13:48;;;;;;;24.60;4.25;;;14.10;99.90;;;;;;5049416;28;20040;-69
2022/06/19 02:16:17;;;;;;;18.33;2.70;;;14.10;99.90;;;;;;5063450;28;20449;-65
2022/06/19 02:18:46;;;;;;;19.00;3.47;;;14.10;99.90;;;;;;5064583;28;20048;-71
2022/06/19 02:21:19;;;;;;;19.20;3.47;;;14.20;99.90;;;;;;5067033;28;20500;-64
2022/06/19 02:23:46;;;;;;;17.25;3.42;;;14.20;99.90;;;;;;5066652;28;20761;-64
2022/06/19 02:26:12;;;;;;;12.55;2.70;;;14.10;99.90;;;;;;5062215;28;20036;-63
2022/06/19 02:28:42;;;;;;;20.73;3.17;;;14.10;99.90;;;;;;5063866;28;20479;-74
2022/06/19 02:31:07;;;;;;;19.33;2.90;;;14.00;99.90;;;;;;5063388;28;20060;-71
2022/06/19 02:33:40;;;;;;;15.85;3.25;;;14.00;99.90;;;;;;5062503;28;20504;-67
2022/06/19 02:36:37;;;;;;;16.00;2.58;;;14.00;99.90;;;;;;5064169;28;20170;-72
2022/06/19 02:39:25;;;;;;;16.73;3.47;;;13.90;99.90;;;;;;5063664;28;20159;-69
2022/06/19 02:42:05;;;;;;;15.32;2.80;;;13.90;99.90;;;;;;5099014;28;20063;-71
2022/06/19 02:44:37;;;;;;;16.13;3.13;;;13.90;99.90;;;;;;5063345;28;20475;-69
2022/06/19 02:47:03;;;;;;;16.85;3.60;;;13.90;99.90;;;;;;5062249;28;20036;-69
2022/06/19 02:49:29;;;;;;;11.98;2.63;;;13.90;99.90;;;;;;5080802;28;20750;-68
2022/06/19 02:51:55;;;;;;;17.10;2.90;;;13.80;99.90;;;;;;5094780;28;20083;-65
2022/06/19 02:54:21;;;;;;;29.38;4.72;;;13.80;99.90;;;;;;5064476;28;20056;-64
2022/06/19 02:56:47;;;;;;;16.67;2.85;;;13.80;99.90;;;;;;5097270;28;20102;-70
2022/06/19 02:59:12;;;;;;;20.55;3.60;;;13.70;99.90;;;;;;5099708;28;20127;-69
2022/06/19 03:01:39;;;;;;;15.63;2.88;;;13.70;99.90;;;;;;5095439;28;20058;-64
2022/06/19 03:04:04;;;;;;;16.67;2.65;;;13.60;99.90;;;;;;5082923;28;20088;-67
2022/06/19 03:06:32;;;;;;;15.52;2.80;;;13.60;99.90;;;;;;5063576;28;20071;-65
2022/06/19 03:08:57;;;;;;;17.58;3.17;;;13.60;99.90;;;;;;5079626;28;20449;-64
2022/06/19 03:11:23;;;;;;;19.70;4.05;;;13.60;99.90;;;;;;5063352;28;20044;-75
2022/06/19 03:13:49;;;;;;;21.25;3.60;;;13.60;99.90;;;;;;5077547;28;20487;-72
2022/06/19 03:16:15;;;;;;;20.13;3.53;;;13.60;99.90;;;;;;5061101;28;20048;-70
2022/06/19 03:18:42;;;;;;;17.15;3.03;;;13.50;99.90;;;;;;5062777;28;20476;-68
2022/06/19 03:21:07;;;;;;;18.02;2.70;;;13.40;99.90;;;;;;5048803;28;20131;-69
2022/06/19 03:23:34;;;;;;;11.88;2.53;;;13.30;99.90;;;;;;5064310;28;20189;-65
2022/06/19 03:25:59;;;;;;;12.48;2.60;;;13.20;99.90;;;;;;5064495;28;20131;-72
2022/06/19 03:28:25;;;;;;;17.55;2.67;;;13.00;99.90;;;;;;5063237;28;20462;-63
2022/06/19 03:30:53;;;;;;;16.27;3.10;;;13.00;99.90;;;;;;5047174;28;20051;-73
2022/06/19 03:33:19;;;;;;;18.88;3.38;;;12.90;99.90;;;;;;5058557;28;20111;-73
2022/06/19 03:35:45;;;;;;;15.75;2.88;;;12.90;99.90;;;;;;5095572;28;20475;-73
2022/06/19 03:38:11;;;;;;;15.48;2.78;;;12.80;99.90;;;;;;5063438;28;20048;-67
2022/06/19 03:40:36;;;;;;;11.55;2.28;;;12.90;99.90;;;;;;5047080;28;20036;-67
2022/06/19 03:43:02;;;;;;;13.05;3.00;;;12.90;99.90;;;;;;5048340;28;20458;-71
2022/06/19 03:45:28;;;;;;;12.55;2.53;;;12.90;99.90;;;;;;5062317;28;20037;-70
2022/06/19 03:47:54;;;;;;;12.25;2.75;;;12.90;99.90;;;;;;5062024;28;20045;-73
2022/06/19 03:50:19;;;;;;;10.80;2.20;;;12.90;99.90;;;;;;5061007;28;20043;-73
2022/06/19 03:52:46;;;;;;;12.52;2.72;;;12.90;99.90;;;;;;5065214;28;20048;-65
2022/06/19 03:55:13;;;;;;;9.90;2.20;;;12.90;99.90;;;;;;5063420;28;20033;-70
2022/06/19 03:57:39;;;;;;;17.98;2.92;;;12.90;99.90;;;;;;5046765;28;20048;-72
2022/06/19 04:00:05;;;;;;;10.88;2.20;;;12.80;99.90;;;;;;5081488;28;20048;-69
2022/06/19 04:02:31;;;;;;;13.35;3.33;;;12.80;99.90;;;;;;5063178;28;20047;-63
2022/06/19 04:04:57;;;;;;;13.57;2.33;;;12.70;99.90;;;;;;5063139;28;20461;-70
2022/06/19 04:07:23;;;;;;;9.63;1.95;;;12.70;99.90;;;;;;5060938;28;20127;-71
2022/06/19 04:09:48;;;;;;;9.05;2.03;;;12.70;99.90;;;;;;5063227;28;20517;-73
2022/06/19 04:12:15;;;;;;;18.00;2.38;;;12.70;99.90;;;;;;5062641;28;20106;-69
2022/06/19 04:14:41;;;;;;;13.80;2.47;;;12.70;99.90;;;;;;5080423;28;20040;-68
2022/06/19 04:17:08;;;;;;;13.40;2.53;;;12.70;99.90;;;;;;5097355;28;20093;-70
2022/06/19 04:19:33;;;;;;;15.68;2.88;;;12.80;99.90;;;;;;5060080;28;20458;-70
2022/06/19 04:21:59;;;;;;;16.02;2.75;;;12.80;99.90;;;;;;5065117;28;20488;-72
2022/06/19 04:24:25;;;;;;;17.20;2.25;;;12.80;99.90;;;;;;5064208;28;20049;-68
2022/06/19 04:26:51;;;;;;;23.48;3.15;;;12.90;99.90;;;;;;5047246;28;20044;-73
2022/06/19 04:29:17;;;;;;;21.75;3.28;;;12.90;99.90;;;;;;5045347;28;20041;-72
2022/06/19 04:31:43;;;;;;;17.17;3.20;;;12.90;99.90;;;;;;5078080;28;20044;-68
2022/06/19 04:34:10;;;;;;;17.83;3.00;;;12.90;99.90;;;;;;5048510;28;20106;-72
2022/06/19 04:36:36;;;;;;;18.58;3.70;;;13.00;99.90;;;;;;5059783;28;20078;-69
2022/06/19 04:39:03;;;;;;;16.17;3.00;;;13.00;99.90;;;;;;5047425;28;20037;-65
2022/06/19 04:41:37;;;;;;;21.55;3.15;;;13.00;99.90;;;;;;5065788;28;20414;-69
2022/06/19 04:44:06;;;;;;;21.77;3.70;;;13.00;99.90;;;;;;5062152;28;20052;-68
2022/06/19 04:46:33;;;;;;;17.88;3.13;;;12.90;99.90;;;;;;5059124;28;20044;-68
2022/06/19 04:48:59;;;;;;;25.55;3.40;;;12.90;99.90;;;;;;5061172;28;20506;-68
2022/06/19 04:51:26;;;;;;;18.23;3.42;;;12.90;99.90;;;;;;5061387;28;20044;-66
2022/06/19 04:53:53;;;;;;;22.13;3.42;;;12.80;99.90;;;;;;5030599;28;20064;-72
2022/06/19 04:56:20;;;;;;;18.63;3.22;;;12.80;99.90;;;;;;5062863;28;20048;-67
2022/06/19 04:58:46;;;;;;;25.77;3.35;;;12.80;99.90;;;;;;5063052;28;20044;-64
2022/06/19 05:01:35;;;;;;;15.98;2.75;;;12.80;99.90;;;;;;5079403;28;20052;-71
2022/06/19 05:04:04;;;;;;;25.63;3.55;;;12.80;99.90;;;;;;5060534;28;20044;-68
2022/06/19 05:06:30;;;;;;;24.77;3.92;;;12.90;99.90;;;;;;5060995;28;20429;-65
2022/06/19 05:08:57;;;;;;;13.18;2.85;;;12.90;99.90;;;;;;5062386;28;20037;-66
2022/06/19 05:11:25;;;;;;;15.18;2.55;;;12.90;99.90;;;;;;5064107;28;20063;-72
2022/06/19 05:13:51;;;;;;;17.25;3.65;;;12.90;99.90;;;;;;5064484;28;21027;-71
2022/06/19 05:16:19;;;;;;;13.75;2.67;;;13.00;99.90;;;;;;5094464;28;20081;-61
2022/06/19 05:18:46;;;;;;;16.55;3.13;;;13.10;99.90;;;;;;5049278;28;20084;-65
2022/06/19 05:21:12;;;;;;;15.80;2.95;;;13.00;99.90;;;;;;5050171;28;20049;-66
2022/06/19 05:23:41;;;;;;;17.65;3.10;;;13.00;99.90;;;;;;5031595;28;20103;-67
2022/06/19 05:26:13;;;;;;;16.60;2.80;;;12.90;99.90;;;;;;5063924;28;20048;-59
2022/06/19 05:28:39;;;;;;;18.65;3.92;;;12.80;99.90;;;;;;5048886;28;20053;-70
2022/06/19 05:31:05;;;;;;;15.55;2.75;;;12.70;99.90;;;;;;5050907;28;20490;-64
2022/06/19 05:33:32;;;;;;;15.35;2.83;;;12.70;99.90;;;;;;5079985;28;20095;-63
2022/06/19 05:35:59;;;;;;;12.93;2.58;;;12.70;99.90;;;;;;5050884;28;20514;-62
2022/06/19 05:38:25;;;;;;;16.52;3.00;;;12.60;99.90;;;;;;5054773;28;20043;-60
2022/06/19 05:40:53;;;;;;;14.18;2.50;;;12.60;99.90;;;;;;5054851;28;20056;-71
2022/06/19 05:43:23;;;;;;;12.48;2.40;;;12.50;99.90;;;;;;5064739;28;20037;-66
2022/06/19 05:45:51;;;;;;;10.73;2.22;;;12.50;99.90;;;;;;5048520;28;20052;-69
2022/06/19 05:48:18;;;;;;;11.75;2.38;;;12.60;99.90;;;;;;5050381;28;20445;-60
2022/06/19 05:50:43;;;;;;;15.98;2.53;;;12.60;99.90;;;;;;5080728;28;20791;-60
2022/06/19 05:53:09;;;;;;;12.07;2.40;;;12.60;99.90;;;;;;5099109;28;20215;-65
2022/06/19 05:55:35;;;;;;;14.23;2.78;;;12.60;99.90;;;;;;5063522;28;20086;-69
2022/06/19 05:58:00;;;;;;;14.18;2.28;;;12.60;99.90;;;;;;5054199;28;20430;-64
2022/06/19 06:00:26;;;;;;;13.02;2.42;;;12.60;99.90;;;;;;5049379;28;20981;-70
2022/06/19 06:02:52;;;;;;;14.85;2.70;;;12.60;99.90;;;;;;5064637;28;20080;-67
2022/06/19 06:05:18;;;;;;;11.57;3.13;;;12.60;99.90;;;;;;5059419;28;20045;-69
2022/06/19 06:07:43;;;;;;;18.98;3.38;;;12.60;99.90;;;;;;5066759;28;20048;-60
2022/06/19 06:10:11;;;;;;;13.50;3.33;;;12.60;99.90;;;;;;5047531;28;20049;-71
2022/06/19 06:12:36;;;;;;;19.45;3.08;;;12.60;99.90;;;;;;5066315;28;20090;-63
2022/06/19 06:15:02;;;;;;;15.68;2.45;;;12.60;99.90;;;;;;5071762;28;20040;-63
2022/06/19 06:17:28;;;;;;;21.17;3.67;;;12.60;99.90;;;;;;5067618;28;20049;-66
2022/06/19 06:19:54;;;;;;;23.92;3.08;;;12.60;99.90;;;;;;5066701;28;20040;-66
2022/06/19 06:22:19;;;;;;;21.15;3.10;;;12.60;99.90;;;;;;5054596;28;20064;-69
2022/06/19 06:24:45;;;;;;;16.63;2.58;;;12.50;99.90;;;;;;5082861;28;20048;-64
2022/06/19 06:27:11;;;;;;;21.13;2.83;;;12.50;99.90;;;;;;5102701;28;20478;-66
2022/06/19 06:29:37;;;;;;;14.45;2.55;;;12.50;99.90;;;;;;5066835;28;20044;-59
2022/06/19 06:32:03;;;;;;;14.80;2.45;;;12.50;99.90;;;;;;5066858;28;20055;-69
2022/06/19 06:34:29;;;;;;;19.83;2.88;;;12.50;99.90;;;;;;5068492;28;20512;-66
2022/06/19 06:36:55;;;;;;;19.83;3.15;;;12.50;99.90;;;;;;5065210;28;20083;-70
2022/06/19 06:39:20;;;;;;;15.75;3.05;;;12.50;99.90;;;;;;5070419;28;20052;-62
2022/06/19 06:41:46;;;;;;;20.90;2.80;;;12.50;99.90;;;;;;5048997;28;20044;-59
2022/06/19 06:44:13;;;;;;;19.35;2.97;;;12.50;99.90;;;;;;5101388;28;20098;-66
2022/06/19 06:46:39;;;;;;;18.33;2.25;;;12.60;99.90;;;;;;5084888;28;20079;-62
2022/06/19 06:49:05;;;;;;;13.38;2.38;;;12.60;99.90;;;;;;5061230;28;20718;-61
2022/06/19 06:51:31;;;;;;;14.05;2.10;;;12.70;99.90;;;;;;5049333;28;20064;-71
2022/06/19 06:53:58;;;;;;;15.65;2.55;;;12.70;99.90;;;;;;5065377;28;20060;-64
2022/06/19 06:56:25;;;;;;;28.55;2.75;;;12.70;99.90;;;;;;5067277;28;20078;-59
2022/06/19 06:58:51;;;;;;;16.55;2.70;;;12.70;99.90;;;;;;5082953;28;20492;-69
2022/06/19 07:01:20;;;;;;;19.85;3.35;;;12.80;99.90;;;;;;5042128;28;20055;-60
2022/06/19 07:03:52;;;;;;;15.65;3.10;;;12.90;99.90;;;;;;5059509;28;20040;-69
2022/06/19 07:06:17;;;;;;;10.77;2.28;;;12.90;99.90;;;;;;5097762;28;20084;-62
2022/06/19 07:08:43;;;;;;;15.77;2.47;;;12.90;99.90;;;;;;5093070;28;20129;-69
2022/06/19 07:11:19;;;;;;;11.52;2.25;;;13.00;99.90;;;;;;5082320;28;20052;-67
2022/06/19 07:13:45;;;;;;;14.07;3.00;;;13.00;99.90;;;;;;5080600;28;20094;-69
2022/06/19 07:16:11;;;;;;;14.45;2.08;;;13.00;99.90;;;;;;5064707;28;20048;-69
2022/06/19 07:18:37;;;;;;;10.25;2.25;;;13.00;99.90;;;;;;5080534;28;20483;-63
2022/06/19 07:21:02;;;;;;;20.40;2.60;;;13.00;99.90;;;;;;5066755;28;20052;-59
2022/06/19 07:23:29;;;;;;;9.63;2.33;;;13.10;99.90;;;;;;5057909;28;20045;-63
2022/06/19 07:25:55;;;;;;;22.08;2.75;;;13.10;99.90;;;;;;5064636;28;20063;-66
2022/06/19 07:28:21;;;;;;;23.73;3.28;;;13.10;99.90;;;;;;5050373;28;20113;-62
2022/06/19 07:30:47;;;;;;;21.92;2.53;;;13.10;99.90;;;;;;5079916;28;20094;-64
2022/06/19 07:33:13;;;;;;;13.75;2.35;;;13.10;99.90;;;;;;5049827;28;20036;-65
2022/06/19 07:35:39;;;;;;;15.18;2.63;;;13.20;99.90;;;;;;5070336;28;20048;-66
2022/06/19 07:38:05;;;;;;;11.68;2.25;;;13.20;99.90;;;;;;5050353;28;20076;-65
2022/06/19 07:40:31;;;;;;;11.90;2.17;;;13.10;99.90;;;;;;5053129;28;20109;-69
2022/06/19 07:42:56;;;;;;;14.45;2.10;;;13.20;99.90;;;;;;5049565;28;20040;-59
2022/06/19 07:45:22;;;;;;;16.52;2.30;;;13.10;99.90;;;;;;5080805;28;20404;-66
2022/06/19 07:50:32;;;;;;;16.00;2.42;;;13.20;99.90;;;;;;5066067;28;20159;-69
2022/06/19 07:52:58;;;;;;;15.30;3.03;;;13.20;99.90;;;;;;5062856;28;20158;-64
2022/06/19 07:55:28;;;;;;;19.13;2.60;;;13.20;99.90;;;;;;5047619;28;20056;-63
2022/06/19 07:57:54;;;;;;;15.20;2.08;;;13.20;99.90;;;;;;5048888;28;20063;-63
2022/06/19 08:00:27;;;;;;;12.50;2.00;;;13.20;99.90;;;;;;5049243;28;20483;-59
2022/06/19 08:02:53;;;;;;;11.20;2.38;;;13.30;99.90;;;;;;5043255;28;20093;-67
2022/06/19 08:05:28;;;;;;;12.70;2.30;;;13.40;99.90;;;;;;5062070;28;20045;-69
2022/06/19 08:07:55;;;;;;;14.55;3.28;;;13.40;99.90;;;;;;5082102;28;20041;-71
2022/06/19 08:10:25;;;;;;;12.60;2.17;;;13.50;99.90;;;;;;5085110;28;20083;-62
2022/06/19 08:12:51;;;;;;;14.18;1.80;;;13.50;99.90;;;;;;5078122;28;20071;-69
2022/06/19 08:15:20;;;;;;;11.02;2.22;;;13.60;99.90;;;;;;5077588;28;20132;-64
2022/06/19 08:17:47;;;;;;;9.32;2.40;;;13.60;99.90;;;;;;5077284;28;20464;-68
2022/06/19 08:20:13;;;;;;;13.88;2.15;;;13.60;99.90;;;;;;5046637;28;20056;-69
2022/06/19 08:22:40;;;;;;;11.50;2.50;;;13.60;99.90;;;;;;5051491;28;20048;-61
2022/06/19 08:25:07;;;;;;;11.98;2.35;;;13.70;99.90;;;;;;5063799;28;20120;-64
2022/06/19 08:27:41;;;;;;;15.75;2.40;;;13.50;99.90;;;;;;5080036;28;20124;-71
2022/06/19 08:30:11;;;;;;;13.00;2.13;;;13.50;99.90;;;;;;5062443;28;20061;-66
2022/06/19 08:32:37;;;;;;;10.40;2.05;;;13.50;99.90;;;;;;5064419;28;20041;-67
2022/06/19 08:35:05;;;;;;;9.45;2.00;;;13.50;99.90;;;;;;5096501;28;20059;-66
2022/06/19 08:37:33;;;;;;;12.02;2.05;;;13.60;99.90;;;;;;5050189;28;20202;-67
2022/06/19 08:39:59;;;;;;;8.45;1.60;;;13.70;99.90;;;;;;5061171;28;20079;-70
2022/06/19 08:42:48;;;;;;;12.43;2.38;;;13.70;99.90;;;;;;5046481;28;20423;-59
2022/06/19 08:45:33;;;;;;;12.27;1.53;;;13.70;99.90;;;;;;5050445;28;20135;-70
2022/06/19 08:48:05;;;;;;;9.88;1.30;;;13.70;99.90;;;;;;5060783;28;20708;-69
2022/06/19 08:50:49;;;;;;;7.82;1.35;;;13.80;99.90;;;;;;5057557;28;20092;-63
2022/06/19 08:53:56;;;;;;;9.63;1.38;;;13.80;99.90;;;;;;5048712;28;20510;-65
2022/06/19 08:56:31;;;;;;;8.02;2.08;;;13.90;99.90;;;;;;4997406;28;20059;-65
2022/06/19 08:59:18;;;;;;;7.75;1.42;;;14.00;99.90;;;;;;5058066;28;20072;-69
2022/06/19 09:02:28;;;;;;;11.35;2.00;;;14.20;99.90;;;;;;5052255;28;20068;-63
2022/06/19 09:08:18;;;;;;;9.63;1.63;;;14.40;99.90;;;;;;5051713;28;20150;-60
2022/06/19 09:10:55;;;;;;;7.45;1.67;;;14.40;99.90;;;;;;5061349;28;20049;-64
2022/06/19 09:13:28;;;;;;;8.80;1.90;;;14.50;99.90;;;;;;5080191;28;20055;-61
2022/06/19 09:16:02;;;;;;;6.13;1.40;;;14.60;99.90;;;;;;5057786;28;20048;-58
2022/06/19 09:18:48;;;;;;;8.00;1.80;;;14.60;99.90;;;;;;5053447;28;20127;-58
2022/06/19 09:21:34;;;;;;;7.38;1.30;;;14.40;99.90;;;;;;5051433;28;20087;-65
2022/06/19 09:27:13;;;;;;;5.80;1.30;;;14.10;99.90;;;;;;5061842;28;20054;-70
2022/06/19 09:29:51;;;;;;;9.63;2.22;;;14.10;99.90;;;;;;5064449;28;20091;-70
2022/06/19 09:32:41;;;;;;;3.65;1.58;;;14.10;99.90;;;;;;5065960;28;20040;-70
2022/06/19 09:35:20;;;;;;;3.30;1.02;;;14.10;99.90;;;;;;5064059;28;20037;-70
2022/06/19 09:37:57;;;;;;;3.72;0.98;;;14.10;99.90;;;;;;5065450;28;20040;-70
2022/06/19 09:40:37;;;;;;;5.38;1.38;;;14.10;99.90;;;;;;5065337;28;20494;-70
2022/06/19 09:43:22;;;;;;;;;;;14.10;99.90;;;;;;5065573;28;20059;-70
2022/06/19 09:46:02;;;;;;;7.28;1.20;;;14.20;99.90;;;;;;5065883;28;19975;-70
2022/06/19 09:48:42;;;;;;;3.67;1.27;;;14.20;99.90;;;;;;5067113;28;20039;-70
2022/06/19 09:51:11;;;;;;;;;;;14.10;99.90;;;;;;5067067;28;20032;-70
2022/06/19 09:54:15;;;;;;;4.10;1.10;;;14.10;99.90;;;;;;5064431;28;19921;-70
2022/06/19 09:56:52;;;;;;;7.18;1.40;;;14.10;99.90;;;;;;5026102;28;20476;-70
2022/06/19 09:59:37;;;;;;;10.95;1.13;;;14.10;99.90;;;;;;5068188;28;20048;-70
2022/06/19 10:02:21;;;;;;;3.08;0.93;;;14.10;99.90;;;;;;5068908;28;20482;-71
2022/06/19 10:05:08;;;;;;;5.57;1.38;;;14.00;99.90;;;;;;5070019;28;20040;-69
2022/06/19 10:07:41;;;;;;;7.55;1.20;;;14.00;99.90;;;;;;5062052;28;20049;-70
2022/06/19 10:10:26;;;;;;;4.45;1.33;;;14.00;99.90;;;;;;5070196;28;20414;-70
2022/06/19 10:12:54;;;;;;;5.57;1.15;;;14.10;99.90;;;;;;5069055;28;20482;-69
2022/06/19 10:15:29;;;;;;;8.50;1.05;;;14.10;99.90;;;;;;5068217;28;20036;-70
2022/06/19 10:18:07;;;;;;;6.38;0.80;;;14.20;99.90;;;;;;5069943;28;20124;-70
2022/06/19 10:20:38;;;;;;;3.33;0.85;;;14.20;99.90;;;;;;5069534;28;20145;-70
2022/06/19 10:23:20;;;;;;;5.45;1.15;;;14.40;99.90;;;;;;5051262;28;20036;-70
2022/06/19 10:25:48;;;;;;;6.45;1.05;;;14.40;99.90;;;;;;5061042;28;20056;-70
2022/06/19 10:28:20;;;;;;;3.10;0.98;;;14.50;99.90;;;;;;5053890;28;20080;-70
2022/06/19 10:31:15;;;;;;;3.63;1.05;;;14.60;99.90;;;;;;5068357;28;20087;-70
2022/06/19 10:33:52;;;;;;;4.40;0.63;;;14.50;99.90;;;;;;5057591;28;20127;-70
2022/06/19 10:36:48;;;;;;;1.95;0.68;;;14.60;99.90;;;;;;5064823;28;20048;-69
2022/06/19 10:39:53;;;;;;;5.72;0.95;;;14.60;99.90;;;;;;5069934;28;20048;-70
2022/06/19 10:42:40;;;;;;;3.78;1.33;;;14.60;99.90;;;;;;5065614;28;20079;-70
2022/06/19 10:45:30;;;;;;;2.67;0.75;;;14.70;99.90;;;;;;5068183;28;20045;-70
2022/06/19 10:48:14;;;;;;;1.77;0.70;;;14.70;99.90;;;;;;5069731;28;20044;-69
2022/06/19 10:51:18;;;;;;;6.22;1.02;;;14.70;99.90;;;;;;5056140;28;20091;-70
2022/06/19 10:54:29;;;;;;;7.60;0.80;;;14.70;99.90;;;;;;5067932;28;20083;-70
2022/06/19 10:56:55;;;;;;;5.30;1.40;;;14.70;99.90;;;;;;5066850;28;20102;-69
2022/06/19 10:59:21;;;;;;;3.92;0.65;;;14.80;99.90;;;;;;5067873;28;20032;-69
2022/06/19 11:04:56;;;;;;;3.95;1.38;;;14.80;99.90;;;;;;5068168;28;20080;-68
2022/06/19 11:07:25;;;;;;;2.17;0.52;;;14.90;99.90;;;;;;5067854;28;20551;-69
2022/06/19 11:10:06;;;;;;;0.93;0.47;;;14.90;99.90;;;;;;5069072;28;20043;-69
2022/06/19 11:12:42;;;;;;;0.73;0.40;;;14.90;99.90;;;;;;5068383;28;20079;-69
2022/06/19 11:15:21;;;;;;;1.33;0.68;;;14.90;99.90;;;;;;5068538;28;20041;-69
2022/06/19 11:17:48;;;;;;;3.67;0.80;;;15.00;99.90;;;;;;5067006;28;20029;-69
2022/06/19 11:20:16;;;;;;;2.30;0.70;;;15.00;99.90;;;;;;5053639;28;20139;-69
2022/06/19 11:22:47;;;;;;;1.33;0.70;;;15.10;99.90;;;;;;5067295;28;20474;-69
2022/06/19 11:25:19;;;;;;;4.35;0.75;;;15.10;99.90;;;;;;5066294;28;20498;-69
2022/06/19 11:28:12;;;;;;;4.10;0.68;;;15.10;99.90;;;;;;5067093;28;20056;-69
2022/06/19 11:30:48;;;;;;;2.70;0.63;;;14.90;99.90;;;;;;5059360;28;20057;-70
2022/06/19 11:33:41;;;;;;;1.88;0.63;;;14.80;99.90;;;;;;5065516;28;20473;-69
2022/06/19 11:36:12;;;;;;;5.22;0.93;;;14.70;99.90;;;;;;5061568;28;20060;-69
2022/06/19 11:38:49;;;;;;;2.05;0.70;;;14.60;99.90;;;;;;5065988;28;20823;-69
2022/06/19 11:41:21;;;;;;;3.47;0.93;;;14.50;99.90;;;;;;5066889;28;20660;-68
2022/06/19 11:44:00;;;;;;;2.97;0.52;;;14.40;99.90;;;;;;5066525;28;20484;-69
2022/06/19 11:46:26;;;;;;;2.42;0.80;;;14.30;99.90;;;;;;5064692;28;20500;-69
2022/06/19 11:48:52;;;;;;;8.65;2.75;;;14.20;99.90;;;;;;5048645;28;20041;-69
2022/06/19 11:51:23;;;;;;;2.13;0.60;;;14.10;99.90;;;;;;5068911;28;20563;-69
2022/06/19 11:53:55;;;;;;;2.42;0.65;;;14.20;99.90;;;;;;5060441;28;20068;-69
2022/06/19 11:56:36;;;;;;;3.03;0.88;;;14.10;99.90;;;;;;5060346;28;20085;-69
2022/06/19 11:59:23;;;;;;;1.35;0.60;;;14.10;99.90;;;;;;5060601;28;20055;-69
2022/06/19 12:01:49;;;;;;;3.83;0.95;;;14.10;99.90;;;;;;5066388;28;20050;-69
2022/06/19 12:04:28;;;;;;;2.05;0.60;;;14.00;99.90;;;;;;5066078;28;20173;-69
2022/06/19 12:07:01;;;;;;;2.75;0.90;;;14.00;99.90;;;;;;5066247;28;20090;-69
2022/06/19 12:09:43;;;;;;;2.58;1.05;;;14.00;99.90;;;;;;5066184;28;20063;-69
2022/06/19 12:12:18;;;;;;;2.17;0.70;;;14.00;99.90;;;;;;5065809;28;20052;-69
2022/06/19 12:14:46;;;;;;;2.25;0.70;;;14.00;99.90;;;;;;5066878;28;20044;-69
2022/06/19 12:17:32;;;;;;;2.80;0.65;;;14.00;99.90;;;;;;5064630;28;20048;-69
2022/06/19 12:20:20;;;;;;;4.13;0.57;;;14.10;99.90;;;;;;5060147;28;20048;-69
2022/06/19 12:23:04;;;;;;;2.05;0.50;;;14.10;99.90;;;;;;5066013;28;20486;-69
2022/06/19 12:25:33;;;;;;;3.42;0.70;;;14.20;99.90;;;;;;5065616;28;20052;-69
2022/06/19 12:28:28;;;;;;;1.67;0.80;;;14.20;99.90;;;;;;5066587;28;20098;-69
2022/06/19 12:30:59;;;;;;;2.63;0.70;;;14.20;99.90;;;;;;5047394;28;20315;-70
2022/06/19 12:33:46;;;;;;;2.88;0.70;;;14.20;99.90;;;;;;5064305;28;20048;-69
2022/06/19 12:36:18;;;;;;;3.50;0.73;;;14.10;99.90;;;;;;5066103;28;20515;-69
2022/06/19 12:38:46;;;;;;;3.10;0.68;;;14.10;99.90;;;;;;5066045;28;20486;-69
2022/06/19 12:41:12;;;;;;;0.80;0.55;;;14.00;99.90;;;;;;5064461;28;20047;-68
2022/06/19 12:44:03;;;;;;;0.98;0.65;;;14.00;99.90;;;;;;5065516;28;20119;-69
2022/06/19 12:46:32;;;;;;;4.32;0.82;;;13.90;99.90;;;;;;5065252;28;20129;-69
2022/06/19 12:49:30;;;;;;;3.55;0.85;;;14.00;99.90;;;;;;5066110;28;20040;-68
2022/06/19 12:52:10;;;;;;;4.80;1.13;;;14.00;99.90;;;;;;5064867;28;20086;-69
2022/06/19 12:54:36;;;;;;;2.72;0.70;;;14.10;99.90;;;;;;5061085;28;20486;-69
2022/06/19 12:57:20;;;;;;;5.40;0.90;;;14.20;99.90;;;;;;5064323;28;20091;-69
2022/06/19 13:00:07;;;;;;;7.32;1.20;;;14.20;99.90;;;;;;5061758;28;20072;-69
2022/06/19 13:03:10;;;;;;;5.18;0.77;;;14.20;99.90;;;;;;5048208;28;20120;-69
2022/06/19 13:06:01;;;;;;;4.30;1.20;;;14.20;99.90;;;;;;5064284;28;20059;-69
2022/06/19 13:09:00;;;;;;;4.40;0.70;;;14.20;99.90;;;;;;5065300;28;20524;-69
2022/06/19 13:11:44;;;;;;;3.63;0.70;;;14.30;99.90;;;;;;5058488;28;20123;-69
2022/06/19 13:14:32;;;;;;;6.63;1.13;;;14.40;99.90;;;;;;5063672;28;20447;-69
2022/06/19 13:17:27;;;;;;;2.97;0.88;;;14.40;99.90;;;;;;5059830;28;20490;-69
2022/06/19 13:20:20;;;;;;;4.65;1.00;;;14.50;99.90;;;;;;5055766;28;20075;-69